Time;durP1;ratioP1;P1;durP2;ratioP2;P2;SDS_P1;SDS_P2;PMS_P1;PMS_P2;Temp;Humidity;BMP_temperature;BMP_pressure;BME280_temperature;BME280_humidity;BME280_pressure;Samples;Min_cycle;Max_cycle;Signal;HPM_P1;HPM_P2
2021/01/31 00:00:28;;;;;;;;;;;;;;;-0.90;100.00;98821.44;5034627;28;19917;-78
2021/01/31 00:03:31;;;;;;;;;;;;;;;-0.85;100.00;98834.63;5034715;28;19913;-78
2021/01/31 00:06:35;;;;;;;;;;;;;;;-0.87;100.00;98850.69;5034224;28;19917;-77
2021/01/31 00:09:38;;;;;;;;;;;;;;;-1.00;100.00;98845.09;5034587;28;19913;-78
2021/01/31 00:12:41;;;;;;;;;;;;;;;-1.00;100.00;98838.84;5034577;28;19913;-77
2021/01/31 00:15:47;;;;;;;;;;;;;;;-0.98;100.00;98831.00;5034534;28;19921;-77
2021/01/31 00:18:50;;;;;;;;;;;;;;;-1.05;100.00;98836.63;5033745;28;20381;-78
2021/01/31 00:21:57;;;;;;;;;;;;;;;-1.08;100.00;98843.69;5027224;28;19921;-78
2021/01/31 00:25:00;;;;;;;;;;;;;;;-1.05;100.00;98847.53;5032150;28;20387;-77
2021/01/31 00:28:04;;;;;;;;;;;;;;;-1.02;100.00;98843.97;5035336;28;19917;-78
2021/01/31 00:31:08;;;;;;;;;;;;;;;-1.05;100.00;98848.31;5033850;28;19913;-79
2021/01/31 00:34:11;;;;;;;;;;;;;;;-1.01;100.00;98842.78;5021253;28;19913;-78
2021/01/31 00:37:15;;;;;;;;;;;;;;;-1.01;100.00;98850.97;5033100;28;19917;-77
2021/01/31 00:40:18;;;;;;;;;;;;;;;-1.12;100.00;98853.91;5033258;28;19913;-77
2021/01/31 00:43:22;;;;;;;;;;;;;;;-1.15;100.00;98854.00;5032962;28;19913;-78
2021/01/31 00:46:25;;;;;;;;;;;;;;;-1.18;100.00;98861.06;5021007;28;19916;-78
2021/01/31 00:49:28;;;;;;;;;;;;;;;-1.11;100.00;98851.97;5032498;28;19913;-78
2021/01/31 00:52:32;;;;;;;;;;;;;;;-1.17;100.00;98850.94;5033053;28;20280;-77
2021/01/31 00:55:35;;;;;;;;;;;;;;;-1.20;100.00;98866.19;5032868;28;19917;-77
2021/01/31 00:58:39;;;;;;;;;;;;;;;-1.18;100.00;98866.53;5033490;28;20277;-77
2021/01/31 01:01:42;;;;;;;;;;;;;;;-1.12;100.00;98858.59;5033514;28;19913;-77
2021/01/31 01:04:46;;;;;;;;;;;;;;;-1.08;100.00;98851.09;5033245;28;19913;-77
2021/01/31 01:07:50;;;;;;;;;;;;;;;-1.08;100.00;98853.84;5033000;28;19917;-77
2021/01/31 01:10:53;;;;;;;;;;;;;;;-1.08;100.00;98854.63;5033262;28;19913;-77
2021/01/31 01:13:56;;;;;;;;;;;;;;;-1.03;100.00;98859.59;5032251;28;19913;-77
2021/01/31 01:17:00;;;;;;;;;;;;;;;-1.01;100.00;98850.97;5033084;28;19913;-77
2021/01/31 01:20:04;;;;;;;;;;;;;;;-0.99;100.00;98863.00;5021174;28;19917;-77
2021/01/31 01:23:08;;;;;;;;;;;;;;;-1.01;100.00;98848.22;5028416;28;19913;-77
2021/01/31 01:26:11;;;;;;;;;;;;;;;-1.03;100.00;98848.66;5032830;28;19943;-77
2021/01/31 01:29:14;;;;;;;;;;;;;;;-1.05;100.00;98847.53;5032840;28;19913;-78
2021/01/31 01:32:17;;;;;;;;;;;;;;;-1.10;100.00;98845.28;5032873;28;19913;-77
2021/01/31 01:35:21;;;;;;;;;;;;;;;-1.13;100.00;98835.22;5032862;28;19913;-77
2021/01/31 01:38:25;;;;;;;;;;;;;;;-1.05;100.00;98842.06;5032640;28;20012;-76
2021/01/31 01:41:35;;;;;;;;;;;;;;;-1.03;100.00;98839.69;5032545;28;19920;-77
2021/01/31 01:44:39;;;;;;;;;;;;;;;-1.01;100.00;98834.56;5032696;28;20369;-77
2021/01/31 01:47:42;;;;;;;;;;;;;;;-0.98;100.00;98836.47;5032835;28;19917;-77
2021/01/31 01:50:48;;;;;;;;;;;;;;;-0.97;100.00;98835.25;5032675;28;19913;-77
2021/01/31 01:53:51;;;;;;;;;;;;;;;-1.01;100.00;98832.63;5032651;28;19943;-77
2021/01/31 01:56:59;;;;;;;;;;;;;;;-1.01;100.00;98823.66;5032365;28;19917;-78
2021/01/31 02:00:04;;;;;;;;;;;;;;;-1.04;100.00;98827.25;5032617;28;19917;-77
2021/01/31 02:03:12;;;;;;;;;;;;;;;-1.03;100.00;98826.03;5032716;28;19917;-78
2021/01/31 02:06:17;;;;;;;;;;;;;;;-1.04;100.00;98822.53;5032517;28;20342;-77
2021/01/31 02:09:20;;;;;;;;;;;;;;;-1.05;100.00;98815.53;5032442;28;19913;-77
2021/01/31 02:12:26;;;;;;;;;;;;;;;-1.00;100.00;98822.47;5032526;28;19913;-77
2021/01/31 02:15:30;;;;;;;;;;;;;;;-1.06;100.00;98821.44;5031871;28;19917;-77
2021/01/31 02:18:52;;;;;;;;;;;;;;;-1.13;100.00;98821.56;5032647;28;20241;-77
2021/01/31 02:22:27;;;;;;;;;;;;;;;-1.04;100.00;98830.72;5032041;28;20289;-77
2021/01/31 02:25:30;;;;;;;;;;;;;;;-1.14;100.00;98839.13;5032196;28;20451;-78
2021/01/31 02:28:43;;;;;;;;;;;;;;;-1.31;100.00;98838.31;5032295;28;19940;-78
2021/01/31 02:31:46;;;;;;;;;;;;;;;-1.24;100.00;98840.13;5032645;28;19905;-77
2021/01/31 02:35:12;;;;;;;;;;;;;;;-1.23;100.00;98847.13;5020180;28;19913;-78
2021/01/31 02:38:18;;;;;;;;;;;;;;;-1.23;100.00;98844.41;5032349;28;20374;-78
2021/01/31 02:41:29;;;;;;;;;;;;;;;-1.29;100.00;98838.66;5034345;28;20289;-78
2021/01/31 02:44:34;;;;;;;;;;;;;;;-1.25;100.00;98838.59;5036504;28;19913;-78
2021/01/31 02:47:42;;;;;;;;;;;;;;;-1.27;100.00;98840.97;5036467;28;19917;-77
2021/01/31 02:50:52;;;;;;;;;;;;;;;-1.29;100.00;98848.81;5035306;28;19913;-78
2021/01/31 02:54:00;;;;;;;;;;;;;;;-1.29;100.00;98849.59;5030756;28;19912;-77
2021/01/31 02:57:09;;;;;;;;;;;;;;;-1.37;100.00;98850.94;5035661;28;19917;-78
2021/01/31 03:00:19;;;;;;;;;;;;;;;-1.43;100.00;98849.09;5035640;28;19913;-78
2021/01/31 03:03:44;;;;;;;;;;;;;;;-1.52;100.00;98847.69;5035511;28;19912;-78
2021/01/31 03:06:54;;;;;;;;;;;;;;;-1.67;100.00;98840.94;5035358;28;19917;-78
2021/01/31 03:10:00;;;;;;;;;;;;;;;-1.82;100.00;98833.47;5022878;28;19912;-77
2021/01/31 03:13:09;;;;;;;;;;;;;;;-1.90;100.00;98832.81;5035438;28;19913;-77
2021/01/31 03:16:15;;;;;;;;;;;;;;;-1.96;100.00;98834.47;5035214;28;19913;-78
2021/01/31 03:19:40;;;;;;;;;;;;;;;-2.02;100.00;98832.63;5035417;28;20365;-78
2021/01/31 03:22:47;;;;;;;;;;;;;;;-2.01;100.00;98831.44;5035135;28;20300;-77
2021/01/31 03:25:55;;;;;;;;;;;;;;;-2.02;100.00;98825.22;5035160;28;20174;-82
2021/01/31 03:28:58;;;;;;;;;;;;;;;-2.04;100.00;98833.06;5035429;28;19913;-82
2021/01/31 03:32:04;;;;;;;;;;;;;;;-2.06;100.00;98818.28;5019016;28;19939;-82
2021/01/31 03:35:10;;;;;;;;;;;;;;;-2.11;100.00;98805.91;5035202;28;19913;-82
2021/01/31 03:38:16;;;;;;;;;;;;;;;-2.09;100.00;98792.63;5022931;28;19913;-82
2021/01/31 03:41:26;;;;;;;;;;;;;;;-2.03;100.00;98785.50;5022699;28;19913;-82
2021/01/31 03:44:30;;;;;;;;;;;;;;;-1.88;100.00;98786.00;5034912;28;20408;-82
2021/01/31 03:48:09;;;;;;;;;;;;;;;-1.83;100.00;98791.75;5034826;28;19917;-82
2021/01/31 03:51:12;;;;;;;;;;;;;;;-1.78;100.00;98774.13;4975873;28;19914;-83
2021/01/31 03:54:16;;;;;;;;;;;;;;;-1.66;100.00;98776.22;5034771;28;19913;-82
2021/01/31 03:57:30;;;;;;;;;;;;;;;-1.66;100.00;98779.72;5034533;28;19917;-84
2021/01/31 04:00:45;;;;;;;;;;;;;;;-1.71;100.00;98785.66;5034684;28;19913;-83
2021/01/31 04:03:51;;;;;;;;;;;;;;;-1.81;100.00;98774.97;5034508;28;19913;-83
2021/01/31 04:06:56;;;;;;;;;;;;;;;-1.89;100.00;98768.88;5034619;28;19917;-83
2021/01/31 04:10:01;;;;;;;;;;;;;;;-1.96;100.00;98768.22;5034510;28;19917;-83
2021/01/31 04:13:04;;;;;;;;;;;;;;;-2.03;100.00;98760.16;5034890;28;19913;-83
2021/01/31 04:16:07;;;;;;;;;;;;;;;-2.07;100.00;98767.66;5034263;28;19913;-82
2021/01/31 04:19:11;;;;;;;;;;;;;;;-2.11;100.00;98762.28;5034618;28;19913;-82
2021/01/31 04:22:14;;;;;;;;;;;;;;;-2.15;100.00;98763.53;5034530;28;20289;-83
2021/01/31 04:25:18;;;;;;;;;;;;;;;-2.14;100.00;98760.38;5022049;28;19917;-82
2021/01/31 04:28:22;;;;;;;;;;;;;;;-2.21;100.00;98768.69;5034146;28;19917;-83
2021/01/31 04:31:26;;;;;;;;;;;;;;;-2.17;100.00;98758.50;5022217;28;20288;-83
2021/01/31 04:34:30;;;;;;;;;;;;;;;-2.04;100.00;98755.91;5034315;28;20285;-82
2021/01/31 04:37:33;;;;;;;;;;;;;;;-2.06;100.00;98750.91;5037763;28;19913;-84
2021/01/31 04:40:37;;;;;;;;;;;;;;;-2.13;100.00;98748.28;5044773;28;19913;-84
2021/01/31 04:43:40;;;;;;;;;;;;;;;-2.22;100.00;98745.34;5036675;28;19916;-83
2021/01/31 04:46:46;;;;;;;;;;;;;;;-2.20;100.00;98742.94;5027160;28;20369;-82
2021/01/31 04:49:53;;;;;;;;;;;;;;;-2.12;100.00;98738.91;5033873;28;19913;-82
2021/01/31 04:53:15;;;;;;;;;;;;;;;-2.13;100.00;98731.16;5021698;28;19913;-83
2021/01/31 04:56:32;;;;;;;;;;;;;;;-2.14;100.00;98738.56;5020820;28;19917;-83
2021/01/31 04:59:37;;;;;;;;;;;;;;;-2.15;100.00;98744.44;5031950;28;19913;-83
2021/01/31 05:02:42;;;;;;;;;;;;;;;-2.13;100.00;98742.06;5032498;28;19917;-83
2021/01/31 05:05:50;;;;;;;;;;;;;;;-2.12;100.00;98738.91;5031607;28;19913;-82
2021/01/31 05:08:53;;;;;;;;;;;;;;;-2.14;100.00;98730.38;5032684;28;19913;-82
2021/01/31 05:12:10;;;;;;;;;;;;;;;-2.09;100.00;98732.63;5032230;28;19913;-82
2021/01/31 05:15:22;;;;;;;;;;;;;;;-2.15;100.00;98726.13;5032302;28;19913;-83
2021/01/31 05:18:26;;;;;;;;;;;;;;;-2.15;100.00;98717.94;5020759;28;19917;-82
2021/01/31 05:21:31;;;;;;;;;;;;;;;-2.11;100.00;98718.63;5032333;28;19917;-82
2021/01/31 05:24:34;;;;;;;;;;;;;;;-2.08;100.00;98715.06;5032942;28;20369;-83
2021/01/31 05:27:38;;;;;;;;;;;;;;;-2.16;100.00;98710.94;5032797;28;19917;-82
2021/01/31 05:30:44;;;;;;;;;;;;;;;-2.11;100.00;98705.00;5032465;28;19913;-82
2021/01/31 05:33:52;;;;;;;;;;;;;;;-2.06;100.00;98696.34;5031811;28;19913;-82
2021/01/31 05:36:59;;;;;;;;;;;;;;;-2.09;100.00;98694.44;5019561;28;19913;-83
2021/01/31 05:40:04;;;;;;;;;;;;;;;-1.98;100.00;98691.50;5031736;28;20405;-81
2021/01/31 05:43:16;;;;;;;;;;;;;;;-1.92;100.00;98692.56;5032133;28;19917;-81
2021/01/31 05:46:19;;;;;;;;;;;;;;;-1.87;100.00;98692.84;5032112;28;19917;-81
2021/01/31 05:49:31;;;;;;;;;;;;;;;-1.85;100.00;98682.28;5032352;28;20285;-83
2021/01/31 05:52:35;;;;;;;;;;;;;;;-1.75;100.00;98675.81;5019567;28;19913;-81
2021/01/31 05:55:38;;;;;;;;;;;;;;;-1.50;100.00;98663.59;4995560;28;691762;-82
2021/01/31 05:58:42;;;;;;;;;;;;;;;-1.44;100.00;98661.91;5020464;28;19913;-81
2021/01/31 06:01:53;;;;;;;;;;;;;;;-1.39;100.00;98659.47;5032451;28;19913;-82
2021/01/31 06:05:15;;;;;;;;;;;;;;;-1.24;100.00;98660.66;5032928;28;19921;-82
2021/01/31 06:08:29;;;;;;;;;;;;;;;-1.27;100.00;98664.25;5032630;28;19917;-80
2021/01/31 06:11:33;;;;;;;;;;;;;;;-1.19;100.00;98656.66;5020873;28;19913;-80
2021/01/31 06:14:38;;;;;;;;;;;;;;;-1.13;100.00;98654.94;5032654;28;19913;-79
2021/01/31 06:17:42;;;;;;;;;;;;;;;-1.05;100.00;98639.91;5036593;28;19917;-80
2021/01/31 06:20:46;;;;;;;;;;;;;;;-1.04;100.00;98636.00;5024483;28;20285;-80
2021/01/31 06:23:52;;;;;;;;;;;;;;;-1.05;100.00;98634.47;5024434;28;19913;-80
2021/01/31 06:26:56;;;;;;;;;;;;;;;-1.06;100.00;98627.47;5036432;28;20300;-79
2021/01/31 06:30:05;;;;;;;;;;;;;;;-1.08;100.00;98630.63;5032338;28;19917;-80
2021/01/31 06:33:09;;;;;;;;;;;;;;;-1.12;100.00;98635.41;5036099;28;19913;-80
2021/01/31 06:36:16;;;;;;;;;;;;;;;-1.11;100.00;98631.50;5036359;28;20507;-81
2021/01/31 06:39:25;;;;;;;;;;;;;;;-1.10;100.00;98637.69;5036190;28;19917;-80
2021/01/31 06:42:31;;;;;;;;;;;;;;;-1.09;100.00;98631.81;5036354;28;19913;-80
2021/01/31 06:45:35;;;;;;;;;;;;;;;-1.10;100.00;98621.31;5036317;28;20285;-80
2021/01/31 06:48:48;;;;;;;;;;;;;;;-1.08;100.00;98622.41;5036076;28;19917;-80
2021/01/31 06:52:06;;;;;;;;;;;;;;;-1.08;100.00;98625.16;5036002;28;19940;-81
2021/01/31 06:55:28;;;;;;;;;;;;;;;-1.06;100.00;98619.28;5035848;28;20361;-80
2021/01/31 06:58:31;;;;;;;;;;;;;;;-1.04;100.00;98616.88;5038891;28;19921;-80
2021/01/31 07:01:46;;;;;;;;;;;;;;;-1.03;100.00;98626.59;5045764;28;19912;-82
2021/01/31 07:04:53;;;;;;;;;;;;;;;-1.09;100.00;98620.13;5042277;28;19913;-80
2021/01/31 07:08:11;;;;;;;;;;;;;;;-1.03;100.00;98621.13;5041239;28;19921;-80
2021/01/31 07:11:23;;;;;;;;;;;;;;;-0.97;100.00;98614.72;5022485;28;19917;-80
2021/01/31 07:14:35;;;;;;;;;;;;;;;-0.96;100.00;98599.13;5035037;28;19913;-82
2021/01/31 07:17:43;;;;;;;;;;;;;;;-0.93;100.00;98600.97;5034837;28;19913;-81
2021/01/31 07:20:49;;;;;;;;;;;;;;;-0.89;100.00;98602.41;5035174;28;19913;-82
2021/01/31 07:23:55;;;;;;;;;;;;;;;-0.88;100.00;98598.50;5022591;28;20357;-83
2021/01/31 07:27:17;;;;;;;;;;;;;;;-0.87;100.00;98589.09;5034464;28;19917;-83
2021/01/31 07:30:23;;;;;;;;;;;;;;;-0.85;100.00;98584.00;5035179;28;19912;-82
2021/01/31 07:33:32;;;;;;;;;;;;;;;-0.84;100.00;98592.94;5034191;28;19917;-82
2021/01/31 07:36:38;;;;;;;;;;;;;;;-0.84;100.00;98582.00;5034734;28;20358;-81
2021/01/31 07:40:06;;;;;;;;;;;;;;;-0.82;100.00;98571.41;5034981;28;19917;-81
2021/01/31 07:43:12;;;;;;;;;;;;;;;-0.84;100.00;98563.66;5034804;28;20361;-80
2021/01/31 07:46:17;;;;;;;;;;;;;;;-0.88;100.00;98562.22;5035126;28;19921;-80
2021/01/31 07:49:20;;;;;;;;;;;;;;;-0.87;100.00;98558.28;5034674;28;19913;-81
2021/01/31 07:52:25;;;;;;;;;;;;;;;-0.88;100.00;98564.94;5021198;28;19913;-81
2021/01/31 07:55:31;;;;;;;;;;;;;;;-0.91;100.00;98568.56;5032610;28;19917;-80
2021/01/31 07:58:37;;;;;;;;;;;;;;;-0.91;100.00;98572.03;5034194;28;19913;-82
2021/01/31 08:01:40;;;;;;;;;;;;;;;-0.88;100.00;98564.94;5031874;28;19913;-82
2021/01/31 08:04:46;;;;;;;;;;;;;;;-0.91;100.00;98557.63;5031407;28;20277;-82
2021/01/31 08:08:01;;;;;;;;;;;;;;;-0.90;100.00;98559.13;5033822;28;19916;-82
2021/01/31 08:11:05;;;;;;;;;;;;;;;-0.85;100.00;98566.81;5034487;28;19912;-78
2021/01/31 08:14:09;;;;;;;;;;;;;;;-0.78;100.00;98558.44;5034850;28;20366;-78
2021/01/31 08:17:32;;;;;;;;;;;;;;;-0.69;100.00;98574.22;5033898;28;19917;-81
2021/01/31 08:20:39;;;;;;;;;;;;;;;-0.66;100.00;98563.19;5019874;28;19913;-82
2021/01/31 08:23:42;;;;;;;;;;;;;;;-0.63;100.00;98573.28;5032633;28;19917;-82
2021/01/31 08:26:49;;;;;;;;;;;;;;;-0.61;100.00;98576.34;5033241;28;19917;-81
2021/01/31 08:30:11;;;;;;;;;;;;;;;-0.57;100.00;98582.47;5031016;28;20373;-83
2021/01/31 08:33:27;;;;;;;;;;;;;;;-0.54;100.00;98581.59;5031827;28;20377;-82
2021/01/31 08:36:35;;;;;;;;;;;;;;;-0.52;100.00;98565.50;5031460;28;19912;-81
2021/01/31 08:39:39;;;;;;;;;;;;;;;-0.48;100.00;98552.53;5032446;28;19920;-81
2021/01/31 08:42:51;;;;;;;;;;;;;;;-0.43;100.00;98562.94;5032144;28;19913;-81
2021/01/31 08:46:02;;;;;;;;;;;;;;;-0.40;100.00;98551.13;5031976;28;19913;-81
2021/01/31 08:49:13;;;;;;;;;;;;;;;-0.36;100.00;98534.63;5030996;28;19925;-81
2021/01/31 08:52:20;;;;;;;;;;;;;;;-0.32;100.00;98538.78;5031031;28;19913;-82
2021/01/31 08:55:23;;;;;;;;;;;;;;;-0.30;100.00;98528.19;5032956;28;19916;-81
2021/01/31 08:58:27;;;;;;;;;;;;;;;-0.27;100.00;98524.56;5034679;28;19913;-81
2021/01/31 09:01:39;;;;;;;;;;;;;;;-0.27;100.00;98521.06;5015751;28;20366;-80
2021/01/31 09:05:03;;;;;;;;;;;;;;;-0.20;100.00;98496.25;5013492;28;19913;-81
2021/01/31 09:08:07;;;;;;;;;;;;;;;-0.13;100.00;98507.00;5014186;28;19917;-81
2021/01/31 09:11:12;;;;;;;;;;;;;;;-0.08;100.00;98499.00;5018999;28;19912;-82
2021/01/31 09:14:20;;;;;;;;;;;;;;;-0.06;100.00;98491.13;5016314;28;19912;-82
2021/01/31 09:17:25;;;;;;;;;;;;;;;-0.02;100.00;98486.28;5031929;28;19913;-81
2021/01/31 09:20:28;;;;;;;;;;;;;;;0.06;100.00;98475.13;5029794;28;19912;-82
2021/01/31 09:23:36;;;;;;;;;;;;;;;0.12;100.00;98473.38;5030032;28;19921;-82
2021/01/31 09:26:47;;;;;;;;;;;;;;;0.19;100.00;98468.47;5033244;28;20362;-81
2021/01/31 09:29:55;;;;;;;;;;;;;;;0.25;100.00;98468.66;5033283;28;19913;-78
2021/01/31 09:33:04;;;;;;;;;;;;;;;0.30;100.00;98479.06;5028265;28;19913;-79
2021/01/31 09:36:15;;;;;;;;;;;;;;;0.35;100.00;98459.31;5033336;28;19913;-79
2021/01/31 09:39:19;;;;;;;;;;;;;;;0.40;100.00;98472.47;5033075;28;19913;-78
2021/01/31 09:42:23;;;;;;;;;;;;;;;0.42;100.00;98462.59;5032993;28;20354;-79
2021/01/31 09:45:32;;;;;;;;;;;;;;;0.44;100.00;98459.41;5032722;28;19916;-78
2021/01/31 09:48:36;;;;;;;;;;;;;;;0.46;100.00;98457.00;5032668;28;20369;-78
2021/01/31 09:51:40;;;;;;;;;;;;;;;0.46;100.00;98459.75;5032699;28;19913;-79
2021/01/31 09:54:43;;;;;;;;;;;;;;;0.46;100.00;98454.25;5033134;28;19913;-80
2021/01/31 09:57:47;;;;;;;;;;;;;;;0.48;100.00;98446.38;5033056;28;19917;-79
2021/01/31 10:00:51;;;;;;;;;;;;;;;0.50;100.00;98449.44;5027013;28;20366;-79
2021/01/31 10:04:00;;;;;;;;;;;;;;;0.52;100.00;98438.81;5032613;28;20407;-80
2021/01/31 10:07:08;;;;;;;;;;;;;;;0.57;100.00;98432.78;5032811;28;19916;-80
2021/01/31 10:10:30;;;;;;;;;;;;;;;0.61;100.00;98433.41;5032671;28;19921;-81
2021/01/31 10:13:33;;;;;;;;;;;;;;;0.63;100.00;98420.03;5000963;28;20369;-82
2021/01/31 10:16:38;;;;;;;;;;;;;;;0.62;100.00;98410.31;5013461;28;19913;-81
2021/01/31 10:19:41;;;;;;;;;;;;;;;0.61;100.00;98411.50;5013116;28;19913;-81
2021/01/31 10:22:44;;;;;;;;;;;;;;;0.60;100.00;98399.03;5013338;28;20333;-80
2021/01/31 10:25:58;;;;;;;;;;;;;;;0.57;100.00;98399.91;5018259;28;20388;-80
2021/01/31 10:29:04;;;;;;;;;;;;;;;0.55;100.00;98385.88;5031724;28;19921;-81
2021/01/31 10:32:22;;;;;;;;;;;;;;;0.55;100.00;98374.94;5031788;28;19916;-80
2021/01/31 10:35:26;;;;;;;;;;;;;;;0.59;100.00;98370.09;5029975;28;20337;-80
2021/01/31 10:38:31;;;;;;;;;;;;;;;0.61;100.00;98371.19;5018106;28;19917;-79
2021/01/31 10:41:38;;;;;;;;;;;;;;;0.66;100.00;98369.84;5030969;28;19921;-82
2021/01/31 10:44:41;;;;;;;;;;;;;;;0.69;100.00;98368.97;5030922;28;19921;-80
2021/01/31 10:47:45;;;;;;;;;;;;;;;0.75;100.00;98365.22;5025625;28;20365;-80
2021/01/31 10:50:48;;;;;;;;;;;;;;;0.78;100.00;98361.56;5015386;28;19917;-80
2021/01/31 10:53:52;;;;;;;;;;;;;;;0.81;100.00;98368.13;5031038;28;20357;-81
2021/01/31 10:56:55;;;;;;;;;;;;;;;0.82;100.00;98355.97;5015586;28;19917;-81
2021/01/31 10:59:58;;;;;;;;;;;;;;;0.83;100.00;98352.00;5012988;28;19917;-81
2021/01/31 11:03:01;;;;;;;;;;;;;;;0.85;100.00;98355.06;5003823;28;19917;-79
2021/01/31 11:06:05;;;;;;;;;;;;;;;0.89;100.00;98344.75;5016722;28;19913;-78
2021/01/31 11:09:15;;;;;;;;;;;;;;;0.91;100.00;98344.31;5015823;28;19913;-79
2021/01/31 11:12:18;;;;;;;;;;;;;;;0.94;100.00;98338.69;5016051;28;19918;-78
2021/01/31 11:15:22;;;;;;;;;;;;;;;0.93;100.00;98330.94;5016777;28;19917;-78
2021/01/31 11:18:26;;;;;;;;;;;;;;;0.94;100.00;98327.72;5015801;28;19913;-78
2021/01/31 11:21:29;;;;;;;;;;;;;;;0.94;100.00;98319.50;5015975;28;19913;-79
2021/01/31 11:24:33;;;;;;;;;;;;;;;0.97;100.00;98315.13;5015616;28;19918;-79
2021/01/31 11:27:36;;;;;;;;;;;;;;;0.99;100.00;98305.22;5015001;28;19913;-79
2021/01/31 11:30:39;;;;;;;;;;;;;;;1.02;100.00;98304.31;5015081;28;19917;-79
2021/01/31 11:33:43;;;;;;;;;;;;;;;1.05;100.00;98300.69;5003637;28;19913;-79
2021/01/31 11:36:47;;;;;;;;;;;;;;;1.07;100.00;98301.00;5015902;28;19913;-79
2021/01/31 11:39:50;;;;;;;;;;;;;;;1.07;100.00;98290.03;5014943;28;19913;-79
2021/01/31 11:42:53;;;;;;;;;;;;;;;1.06;100.00;98283.03;5015879;28;19917;-79
2021/01/31 11:45:57;;;;;;;;;;;;;;;1.07;100.00;98279.06;5015361;28;19939;-77
2021/01/31 11:49:00;;;;;;;;;;;;;;;1.10;100.00;98278.19;5015377;28;19913;-79
2021/01/31 11:52:04;;;;;;;;;;;;;;;1.11;100.00;98268.72;5015263;28;20378;-80
2021/01/31 11:55:07;;;;;;;;;;;;;;;1.14;100.00;98262.38;5015362;28;19914;-79
2021/01/31 11:58:11;;;;;;;;;;;;;;;1.18;100.00;98257.50;4995620;28;20389;-78
2021/01/31 12:01:15;;;;;;;;;;;;;;;1.24;100.00;98250.19;4995340;28;19917;-79
2021/01/31 12:04:18;;;;;;;;;;;;;;;1.32;100.00;98242.47;4995490;28;20285;-79
2021/01/31 12:07:21;;;;;;;;;;;;;;;1.42;100.00;98244.78;4995477;28;20282;-81
2021/01/31 12:10:26;;;;;;;;;;;;;;;1.55;100.00;98228.19;4995399;28;19917;-80
2021/01/31 12:13:29;;;;;;;;;;;;;;;1.69;100.00;98210.41;4994080;28;19913;-79
2021/01/31 12:16:33;;;;;;;;;;;;;;;1.85;100.00;98210.09;4995069;28;19917;-78
2021/01/31 12:19:36;;;;;;;;;;;;;;;1.97;100.00;98190.72;4995398;28;19914;-79
2021/01/31 12:22:41;;;;;;;;;;;;;;;2.05;100.00;98191.19;4995030;28;19969;-79
2021/01/31 12:25:44;;;;;;;;;;;;;;;2.11;100.00;98189.34;4995218;28;19917;-79
2021/01/31 12:28:48;;;;;;;;;;;;;;;2.10;100.00;98177.59;4994944;28;19913;-79
2021/01/31 12:31:51;;;;;;;;;;;;;;;2.16;100.00;98175.78;4994862;28;19933;-79
2021/01/31 12:34:55;;;;;;;;;;;;;;;2.18;100.00;98165.09;4994819;28;19914;-79
2021/01/31 12:38:01;;;;;;;;;;;;;;;2.18;100.00;98150.59;4995098;28;19914;-80
2021/01/31 12:41:05;;;;;;;;;;;;;;;2.16;100.00;98147.56;4983058;28;19913;-80
2021/01/31 12:44:08;;;;;;;;;;;;;;;2.13;100.00;98148.47;4994450;28;19914;-79
2021/01/31 12:47:12;;;;;;;;;;;;;;;2.14;100.00;98139.00;4995545;28;19917;-80
2021/01/31 12:50:16;;;;;;;;;;;;;;;2.18;100.00;98128.63;4995050;28;19917;-78
2021/01/31 12:53:20;;;;;;;;;;;;;;;2.20;100.00;98115.19;4994894;28;19914;-78
2021/01/31 12:56:23;;;;;;;;;;;;;;;2.21;100.00;98108.47;5000587;28;19913;-77
2021/01/31 12:59:26;;;;;;;;;;;;;;;2.22;100.00;98090.78;5034009;28;19916;-79
2021/01/31 13:02:29;;;;;;;;;;;;;;;2.21;100.00;98086.50;5034429;28;19913;-78
2021/01/31 13:05:33;;;;;;;;;;;;;;;2.18;100.00;98076.47;5033938;28;19916;-79
2021/01/31 13:08:37;;;;;;;;;;;;;;;2.16;100.00;98076.16;5033924;28;20285;-79
2021/01/31 13:11:40;;;;;;;;;;;;;;;2.16;100.00;98067.94;5034014;28;19917;-78
2021/01/31 13:14:44;;;;;;;;;;;;;;;2.14;100.00;98059.41;5033991;28;19913;-78
2021/01/31 13:17:47;;;;;;;;;;;;;;;2.13;100.00;98055.88;5033920;28;19913;-78
2021/01/31 13:20:50;;;;;;;;;;;;;;;2.13;100.00;98052.38;5033905;28;19913;-79
2021/01/31 13:23:54;;;;;;;;;;;;;;;2.12;100.00;98037.13;5033337;28;19912;-77
2021/01/31 13:26:57;;;;;;;;;;;;;;;2.10;100.00;98039.59;5033231;28;19913;-78
2021/01/31 13:30:05;;;;;;;;;;;;;;;2.06;100.00;98033.47;5032399;28;20293;-78
2021/01/31 13:33:09;;;;;;;;;;;;;;;2.04;100.00;98024.94;5034046;28;19913;-78
2021/01/31 13:36:12;;;;;;;;;;;;;;;2.02;100.00;98019.91;5034951;28;19920;-78
2021/01/31 13:39:15;;;;;;;;;;;;;;;1.99;100.00;98014.59;5033347;28;19912;-78
2021/01/31 13:42:19;;;;;;;;;;;;;;;1.99;100.00;97995.38;5033351;28;19913;-78
2021/01/31 13:45:22;;;;;;;;;;;;;;;1.97;100.00;97992.34;5033547;28;19936;-78
2021/01/31 13:48:25;;;;;;;;;;;;;;;1.91;100.00;97978.47;5034402;28;19913;-78
2021/01/31 13:51:28;;;;;;;;;;;;;;;1.88;100.00;97978.66;5033220;28;19917;-78
2021/01/31 13:54:32;;;;;;;;;;;;;;;1.80;100.00;97969.25;5033452;28;20623;-78
2021/01/31 13:57:38;;;;;;;;;;;;;;;1.73;100.00;97956.59;5012906;28;19913;-79
2021/01/31 14:00:41;;;;;;;;;;;;;;;1.64;100.00;97948.41;5012775;28;19918;-79
2021/01/31 14:03:44;;;;;;;;;;;;;;;1.63;100.00;97937.88;5012690;28;19913;-79
2021/01/31 14:06:48;;;;;;;;;;;;;;;1.56;100.00;97932.72;5013256;28;19913;-78
2021/01/31 14:09:51;;;;;;;;;;;;;;;1.51;100.00;97921.16;5013489;28;19917;-79
2021/01/31 14:12:54;;;;;;;;;;;;;;;1.48;100.00;97913.84;5008251;28;20366;-78
2021/01/31 14:15:58;;;;;;;;;;;;;;;1.43;100.00;97905.47;5012348;28;19914;-79
2021/01/31 14:19:02;;;;;;;;;;;;;;;1.43;100.00;97899.97;5012240;28;19917;-79
2021/01/31 14:22:05;;;;;;;;;;;;;;;1.41;100.00;97897.72;5012584;28;19913;-78
2021/01/31 14:25:09;;;;;;;;;;;;;;;1.41;100.00;97884.00;5012519;28;19913;-78
2021/01/31 14:28:13;;;;;;;;;;;;;;;1.43;100.00;97889.00;5012379;28;20389;-77
2021/01/31 14:31:16;;;;;;;;;;;;;;;1.41;100.00;97878.53;5012370;28;19917;-77
2021/01/31 14:34:20;;;;;;;;;;;;;;;1.43;100.00;97878.81;5012303;28;19914;-78
2021/01/31 14:37:23;;;;;;;;;;;;;;;1.43;100.00;97858.84;5001832;28;19913;-77
2021/01/31 14:40:30;;;;;;;;;;;;;;;1.43;100.00;97845.91;5016094;28;19917;-77
2021/01/31 14:43:34;;;;;;;;;;;;;;;1.46;100.00;97850.47;5016728;28;19914;-75
2021/01/31 14:46:40;;;;;;;;;;;;;;;1.46;100.00;97834.03;5015992;28;19917;-77
2021/01/31 14:49:43;;;;;;;;;;;;;;;1.46;100.00;97828.53;5016252;28;19913;-78
2021/01/31 14:52:47;;;;;;;;;;;;;;;1.45;100.00;97827.00;5016324;28;19917;-77
2021/01/31 14:55:50;;;;;;;;;;;;;;;1.42;100.00;97810.72;5019187;28;19917;-78
2021/01/31 14:58:53;;;;;;;;;;;;;;;1.41;100.00;97809.19;4999051;28;19918;-76
2021/01/31 15:01:57;;;;;;;;;;;;;;;1.41;100.00;97809.97;5016082;28;19910;-77
2021/01/31 15:05:00;;;;;;;;;;;;;;;1.40;100.00;97802.97;5016003;28;19913;-76
2021/01/31 15:08:04;;;;;;;;;;;;;;;1.36;100.00;97796.91;4999726;28;19913;-77
2021/01/31 15:11:07;;;;;;;;;;;;;;;1.37;100.00;97798.41;5013037;28;19921;-77
2021/01/31 15:14:11;;;;;;;;;;;;;;;1.34;100.00;97788.34;5015162;28;19913;-77
2021/01/31 15:17:14;;;;;;;;;;;;;;;1.31;100.00;97786.56;5015576;28;19913;-77
2021/01/31 15:20:21;;;;;;;;;;;;;;;1.29;100.00;97780.78;5015958;28;19921;-77
2021/01/31 15:23:26;;;;;;;;;;;;;;;1.29;100.00;97774.53;5015579;28;19914;-77
2021/01/31 15:26:29;;;;;;;;;;;;;;;1.29;100.00;97769.03;5018032;28;19917;-77
2021/01/31 15:29:32;;;;;;;;;;;;;;;1.28;100.00;97771.03;5015548;28;19914;-78
2021/01/31 15:32:36;;;;;;;;;;;;;;;1.28;100.00;97768.28;5011365;28;19921;-78
2021/01/31 15:35:39;;;;;;;;;;;;;;;1.23;100.00;97754.47;5013336;28;19914;-77
2021/01/31 15:38:43;;;;;;;;;;;;;;;1.23;100.00;97744.25;5016332;28;20378;-77
2021/01/31 15:41:46;;;;;;;;;;;;;;;1.22;100.00;97752.94;5035291;28;19913;-77
2021/01/31 15:44:49;;;;;;;;;;;;;;;1.19;100.00;97738.16;5022923;28;19917;-77
2021/01/31 15:47:53;;;;;;;;;;;;;;;1.17;100.00;97740.63;5027740;28;19914;-77
2021/01/31 15:50:56;;;;;;;;;;;;;;;1.13;100.00;97734.53;5015984;28;19921;-77
2021/01/31 15:53:59;;;;;;;;;;;;;;;1.12;100.00;97733.03;5035230;28;19913;-78
2021/01/31 15:57:03;;;;;;;;;;;;;;;1.11;100.00;97734.25;5034776;28;19917;-77
2021/01/31 16:00:12;;;;;;;;;;;;;;;1.07;100.00;97724.69;5035075;28;19917;-77